createdAt,value
2022-12-12T00:02:20.565Z,14.20
2022-12-12T00:05:06.688Z,16.73
2022-12-12T00:07:35.446Z,17.17
2022-12-12T00:10:02.678Z,16.80
2022-12-12T00:12:29.878Z,15.87
2022-12-12T00:18:51.396Z,15.80
2022-12-12T00:21:19.513Z,16.03
2022-12-12T00:23:49.316Z,14.83
2022-12-12T00:26:18.549Z,14.40
2022-12-12T00:28:45.828Z,16.30
2022-12-12T00:31:13.142Z,15.63
2022-12-12T00:33:40.486Z,15.07
2022-12-12T00:36:08.126Z,15.17
2022-12-12T00:38:35.375Z,16.93
2022-12-12T00:41:04.806Z,12.23
2022-12-12T00:43:32.463Z,15.83
2022-12-12T00:45:59.945Z,17.57
2022-12-12T00:48:27.934Z,15.20
2022-12-12T00:50:55.602Z,15.60
2022-12-12T00:53:22.897Z,15.67
2022-12-12T00:55:55.309Z,17.40
2022-12-12T00:58:24.137Z,14.20
2022-12-12T01:00:51.417Z,15.97
2022-12-12T01:03:37.670Z,14.83
2022-12-12T01:06:04.996Z,18.07
2022-12-12T01:08:32.213Z,16.57
2022-12-12T01:10:59.468Z,17.23
2022-12-12T01:20:15.413Z,16.23
2022-12-12T01:22:45.108Z,15.20
2022-12-12T01:25:12.642Z,15.37
2022-12-12T01:27:40.398Z,15.53
2022-12-12T01:30:08.692Z,16.73
2022-12-12T01:32:35.953Z,16.43
2022-12-12T01:35:11.101Z,16.60
2022-12-12T01:37:39.116Z,17.70
2022-12-12T01:40:07.813Z,15.53
2022-12-12T01:42:35.408Z,16.10
2022-12-12T01:45:27.346Z,15.63
2022-12-12T01:48:13.062Z,15.50
2022-12-12T01:50:42.476Z,15.50
2022-12-12T01:53:09.846Z,16.87
2022-12-12T01:55:37.198Z,16.83
2022-12-12T01:58:04.962Z,15.20
2022-12-12T02:00:32.624Z,16.80
2022-12-12T02:03:00.059Z,15.83
2022-12-12T02:05:29.782Z,14.93
2022-12-12T02:07:59.245Z,15.33
2022-12-12T02:10:26.583Z,16.60
2022-12-12T02:13:00.904Z,16.57
2022-12-12T02:15:31.982Z,15.17
2022-12-12T02:18:12.686Z,15.77
2022-12-12T02:20:57.282Z,15.87
2022-12-12T02:23:43.175Z,14.87
2022-12-12T02:26:33.860Z,15.20
2022-12-12T02:29:26.069Z,15.63
2022-12-12T02:32:15.655Z,14.17
2022-12-12T02:34:49.572Z,16.93
2022-12-12T02:37:22.503Z,15.33
2022-12-12T02:39:55.196Z,15.33
2022-12-12T02:42:28.580Z,14.70
2022-12-12T02:44:57.319Z,16.47
2022-12-12T02:50:05.469Z,16.13
2022-12-12T02:52:33.517Z,17.33
2022-12-12T02:55:01.065Z,17.23
2022-12-12T02:57:28.988Z,15.67
2022-12-12T02:59:57.132Z,15.57
2022-12-12T03:02:52.428Z,14.67
2022-12-12T03:05:38.467Z,15.87
2022-12-12T03:08:21.972Z,15.27
2022-12-12T03:10:51.428Z,14.60
2022-12-12T03:13:24.011Z,14.73
2022-12-12T03:15:57.400Z,15.63
2022-12-12T03:18:27.010Z,15.93
2022-12-12T03:20:58.214Z,14.93
2022-12-12T03:23:29.439Z,15.90
2022-12-12T03:25:59.378Z,16.40
2022-12-12T03:28:30.007Z,16.33
2022-12-12T03:30:58.487Z,14.70
2022-12-12T03:36:52.416Z,15.90
2022-12-12T03:39:24.014Z,14.73
2022-12-12T03:41:53.043Z,15.77
2022-12-12T03:44:22.004Z,14.57
2022-12-12T03:46:51.715Z,18.30
2022-12-12T03:49:21.827Z,16.03
2022-12-12T03:51:51.793Z,15.43
2022-12-12T03:54:23.903Z,16.07
2022-12-12T03:56:55.478Z,15.80
2022-12-12T03:59:27.464Z,15.80
2022-12-12T04:01:58.231Z,15.07
2022-12-12T04:04:29.601Z,14.93
2022-12-12T04:07:18.571Z,14.47
2022-12-12T04:09:47.440Z,15.17
2022-12-12T04:12:17.000Z,16.47
2022-12-12T04:14:59.956Z,16.70
2022-12-12T04:24:01.719Z,16.33
2022-12-12T04:26:34.000Z,16.60
2022-12-12T04:29:04.193Z,16.30
2022-12-12T04:31:32.153Z,15.60
2022-12-12T04:34:03.145Z,16.73
2022-12-12T04:36:48.972Z,15.10
2022-12-12T04:39:35.521Z,15.27
2022-12-12T04:42:05.267Z,14.50
2022-12-12T04:44:33.769Z,16.70
2022-12-12T04:47:14.756Z,17.47
2022-12-12T04:50:12.875Z,14.70
2022-12-12T04:52:59.463Z,15.20
2022-12-12T04:55:28.416Z,16.30
2022-12-12T04:57:57.183Z,15.23
2022-12-12T05:00:25.737Z,14.93
2022-12-12T05:02:57.240Z,14.37
2022-12-12T05:05:27.164Z,14.87
2022-12-12T05:08:08.393Z,15.33
2022-12-12T05:10:42.210Z,14.47
2022-12-12T05:13:16.823Z,15.07
2022-12-12T05:15:45.134Z,14.90
2022-12-12T05:22:06.483Z,14.53
2022-12-12T05:24:33.744Z,14.53
2022-12-12T05:27:00.950Z,14.27
2022-12-12T05:29:29.536Z,13.63
2022-12-12T05:31:56.717Z,13.27
2022-12-12T05:34:24.167Z,14.73
2022-12-12T05:37:06.526Z,13.60
2022-12-12T05:39:33.963Z,13.63
2022-12-12T05:42:01.192Z,14.60
2022-12-12T05:44:29.884Z,14.13
2022-12-12T05:47:28.167Z,14.93
2022-12-12T05:53:06.513Z,14.37
2022-12-12T05:55:33.946Z,14.93
2022-12-12T05:58:01.273Z,15.20
2022-12-12T06:00:30.085Z,14.80
2022-12-12T06:02:57.392Z,14.77
2022-12-12T06:05:24.679Z,13.90
2022-12-12T06:07:51.972Z,14.73
2022-12-12T06:10:19.305Z,14.63
2022-12-12T06:12:46.732Z,14.07
2022-12-12T06:15:14.696Z,14.83
2022-12-12T06:17:43.444Z,13.10
2022-12-12T06:20:11.041Z,15.57
2022-12-12T06:22:38.363Z,15.87
2022-12-12T06:25:06.084Z,13.77
2022-12-12T06:27:33.414Z,14.70
2022-12-12T06:30:00.625Z,15.43
2022-12-12T06:32:27.936Z,13.70
2022-12-12T06:34:56.583Z,14.20
2022-12-12T06:37:25.595Z,12.97
2022-12-12T06:39:53.052Z,13.77
2022-12-12T06:42:20.354Z,15.00
2022-12-12T06:44:47.571Z,15.83
2022-12-12T06:47:14.773Z,15.00
2022-12-12T06:49:42.078Z,14.50
2022-12-12T06:52:10.703Z,15.87
2022-12-12T06:54:38.127Z,15.00
2022-12-12T06:57:05.572Z,13.07
2022-12-12T06:59:32.797Z,15.13
2022-12-12T07:02:00.165Z,14.93
2022-12-12T07:04:27.443Z,14.17
2022-12-12T07:06:54.858Z,13.97
2022-12-12T07:09:23.455Z,14.53
2022-12-12T07:11:50.785Z,13.70
2022-12-12T07:14:18.057Z,15.17
2022-12-12T07:16:45.245Z,15.20
2022-12-12T07:19:12.496Z,13.83
2022-12-12T07:21:39.772Z,10.83
2022-12-12T07:24:07.190Z,13.20
2022-12-12T07:26:35.830Z,14.20
2022-12-12T07:29:04.332Z,14.63
2022-12-12T07:31:31.961Z,14.83
2022-12-12T07:33:59.297Z,13.60
2022-12-12T07:36:26.567Z,14.17
2022-12-12T07:38:53.903Z,15.50
2022-12-12T07:41:21.154Z,15.03
2022-12-12T07:43:51.033Z,15.17
2022-12-12T07:46:19.458Z,14.87
2022-12-12T07:48:47.228Z,16.13
2022-12-12T07:51:14.969Z,14.53
2022-12-12T07:53:42.434Z,15.97
2022-12-12T07:56:10.453Z,14.40
2022-12-12T07:58:37.800Z,14.83
2022-12-12T08:01:14.294Z,14.97
2022-12-12T08:03:42.532Z,15.50
2022-12-12T08:06:09.817Z,16.33
2022-12-12T08:08:37.149Z,16.53
2022-12-12T08:11:07.879Z,14.13
2022-12-12T08:13:35.832Z,16.40
2022-12-12T08:16:03.207Z,15.77
2022-12-12T08:18:32.485Z,17.37
2022-12-12T08:23:49.491Z,16.33
2022-12-12T08:26:18.211Z,15.70
2022-12-12T08:28:45.656Z,16.40
2022-12-12T08:31:13.746Z,15.53
2022-12-12T08:33:42.614Z,16.33
2022-12-12T08:40:04.957Z,15.00
2022-12-12T08:42:32.238Z,15.33
2022-12-12T08:44:59.421Z,15.10
2022-12-12T08:47:26.832Z,18.13
2022-12-12T08:49:55.471Z,17.53
2022-12-12T08:52:22.689Z,16.97
2022-12-12T08:55:08.834Z,18.43
2022-12-12T08:57:36.129Z,17.97
2022-12-12T09:00:03.974Z,20.43
2022-12-12T09:02:31.364Z,19.07
2022-12-12T09:05:17.305Z,21.60
2022-12-12T09:11:05.211Z,19.70
2022-12-12T09:13:32.827Z,17.43
2022-12-12T09:16:00.115Z,19.03
2022-12-12T09:18:28.024Z,21.90
2022-12-12T09:20:56.142Z,19.20
2022-12-12T09:23:24.009Z,20.77
2022-12-12T09:28:41.935Z,21.20
2022-12-12T09:31:10.218Z,20.00
2022-12-12T09:33:37.898Z,17.50
2022-12-12T09:36:24.203Z,23.73
2022-12-12T09:39:00.498Z,19.50
2022-12-12T09:41:28.282Z,25.50
2022-12-12T09:43:58.429Z,22.47
2022-12-12T09:46:28.742Z,19.37
2022-12-12T09:48:57.765Z,22.73
2022-12-12T09:51:25.025Z,20.70
2022-12-12T09:56:45.679Z,18.57
2022-12-12T09:59:17.408Z,20.67
2022-12-12T10:01:53.192Z,27.97
2022-12-12T10:08:28.906Z,23.83
2022-12-12T10:10:58.547Z,24.77
2022-12-12T10:13:32.533Z,24.57
2022-12-12T10:16:04.013Z,21.47
2022-12-12T10:18:32.369Z,25.17
2022-12-12T10:21:01.045Z,23.43
2022-12-12T10:23:35.718Z,23.27
2022-12-12T10:26:06.848Z,20.37
2022-12-12T10:28:34.166Z,19.07
2022-12-12T10:31:05.813Z,20.43
2022-12-12T10:34:02.030Z,22.43
2022-12-12T10:36:35.842Z,18.53
2022-12-12T10:39:08.841Z,18.83
2022-12-12T10:41:40.820Z,13.47
2022-12-12T10:44:13.651Z,16.87
2022-12-12T10:46:44.098Z,18.80
2022-12-12T10:49:14.706Z,19.27
2022-12-12T10:51:43.028Z,13.43
2022-12-12T10:54:15.263Z,6.30
2022-12-12T10:57:04.167Z,17.80
2022-12-12T10:59:31.452Z,20.13
2022-12-12T11:02:10.031Z,18.00
2022-12-12T11:04:37.934Z,16.80
2022-12-12T11:07:05.201Z,16.87
2022-12-12T11:12:23.210Z,15.77
2022-12-12T11:14:51.891Z,16.87
2022-12-12T11:17:25.196Z,17.50
2022-12-12T11:19:54.776Z,15.57
2022-12-12T11:22:22.175Z,16.73
2022-12-12T11:28:43.679Z,15.40
2022-12-12T11:31:12.615Z,17.20
2022-12-12T11:33:45.434Z,16.10
2022-12-12T11:36:14.665Z,15.60
2022-12-12T11:38:52.409Z,15.43
2022-12-12T11:41:19.964Z,16.37
2022-12-12T11:43:54.272Z,17.40
2022-12-12T11:46:24.598Z,16.50
2022-12-12T11:48:58.292Z,15.27
2022-12-12T11:51:33.846Z,17.07
2022-12-12T11:54:12.711Z,16.67
2022-12-12T11:56:43.964Z,15.17
2022-12-12T11:59:34.607Z,15.40
2022-12-12T12:02:15.561Z,13.60
2022-12-12T12:05:00.823Z,15.93
2022-12-12T12:07:53.294Z,13.73
2022-12-12T12:10:26.043Z,14.97
2022-12-12T12:12:57.069Z,13.70
2022-12-12T12:15:31.655Z,11.53
2022-12-12T12:18:07.162Z,11.97
2022-12-12T12:20:38.679Z,13.03
2022-12-12T12:26:09.626Z,12.43
2022-12-12T12:28:44.244Z,13.70
2022-12-12T12:31:14.779Z,12.57
2022-12-12T12:33:51.905Z,11.27
2022-12-12T12:36:22.194Z,11.00
2022-12-12T12:39:14.719Z,12.43
2022-12-12T12:42:07.437Z,12.07
2022-12-12T12:44:53.147Z,11.30
2022-12-12T12:47:26.504Z,12.17
2022-12-12T12:49:56.279Z,11.20
2022-12-12T12:52:27.115Z,11.97
2022-12-12T12:54:56.035Z,9.93
2022-12-12T12:57:26.246Z,11.43
2022-12-12T13:00:02.310Z,11.40
2022-12-12T13:02:34.739Z,13.10
2022-12-12T13:05:05.486Z,9.27
2022-12-12T13:07:40.550Z,12.57
2022-12-12T13:13:55.988Z,9.63
2022-12-12T13:16:26.215Z,9.93
2022-12-12T13:18:58.749Z,11.90
2022-12-12T13:21:33.159Z,9.23
2022-12-12T13:24:03.734Z,11.97
2022-12-12T13:26:34.528Z,9.03
2022-12-12T13:31:43.547Z,10.57
2022-12-12T13:34:12.116Z,11.43
2022-12-12T13:36:41.630Z,10.43
2022-12-12T13:39:25.728Z,11.00
2022-12-12T13:42:08.821Z,9.03
2022-12-12T13:44:38.631Z,10.83
2022-12-12T13:47:11.816Z,11.33
2022-12-12T13:49:47.262Z,9.63
2022-12-12T13:52:22.799Z,10.33
2022-12-12T13:54:51.183Z,10.60
2022-12-12T13:57:29.106Z,11.10
2022-12-12T14:00:23.622Z,10.67
2022-12-12T14:03:16.286Z,10.23
2022-12-12T14:05:44.455Z,9.27
2022-12-12T14:08:30.310Z,11.03
2022-12-12T14:11:11.947Z,9.90
2022-12-12T14:13:50.734Z,9.83
2022-12-12T14:16:20.198Z,9.73
2022-12-12T14:19:00.796Z,9.30
2022-12-12T14:21:37.930Z,11.33
2022-12-12T14:24:20.134Z,8.73
2022-12-12T14:29:30.260Z,11.03
2022-12-12T14:32:07.384Z,9.57
2022-12-12T14:34:42.083Z,10.00
2022-12-12T14:41:07.980Z,10.67
2022-12-12T14:43:36.341Z,9.33
2022-12-12T14:46:04.015Z,9.83
2022-12-12T14:48:31.663Z,10.10
2022-12-12T14:51:05.648Z,9.80
2022-12-12T14:53:35.072Z,9.07
2022-12-12T14:56:23.600Z,9.70
2022-12-12T14:58:58.149Z,8.73
2022-12-12T15:01:29.510Z,9.83
2022-12-12T15:03:58.306Z,9.33
2022-12-12T15:06:56.738Z,9.00
2022-12-12T15:13:17.876Z,10.13
2022-12-12T15:15:46.578Z,10.57
2022-12-12T15:18:21.628Z,10.53
2022-12-12T15:20:48.869Z,9.53
2022-12-12T15:23:19.138Z,10.47
2022-12-12T15:26:05.989Z,9.03
2022-12-12T15:28:33.234Z,9.83
2022-12-12T15:31:01.976Z,9.87
2022-12-12T15:33:29.310Z,9.53
2022-12-12T15:39:22.732Z,10.60
2022-12-12T15:41:59.363Z,10.40
2022-12-12T15:44:26.794Z,10.13
2022-12-12T15:46:55.606Z,10.53
2022-12-12T15:49:39.292Z,9.93
2022-12-12T15:52:11.653Z,10.43
2022-12-12T15:54:39.007Z,10.47
2022-12-12T15:57:14.140Z,10.27
2022-12-12T15:59:41.448Z,10.33
2022-12-12T16:02:30.898Z,10.20
2022-12-12T16:05:04.143Z,11.67
2022-12-12T16:07:31.804Z,10.40
2022-12-12T16:10:00.988Z,10.67
2022-12-12T16:12:47.146Z,11.27
2022-12-12T16:15:18.320Z,11.53
2022-12-12T16:17:57.736Z,10.37
2022-12-12T16:20:30.467Z,10.63
2022-12-12T16:23:08.786Z,10.53
2022-12-12T16:25:36.075Z,10.23
2022-12-12T16:28:14.689Z,11.23
2022-12-12T16:30:42.940Z,11.37
2022-12-12T16:33:11.780Z,11.63
2022-12-12T16:35:40.357Z,12.40
2022-12-12T16:38:13.135Z,11.87
2022-12-12T16:40:40.345Z,10.50
2022-12-12T16:43:11.543Z,11.33
2022-12-12T16:45:39.182Z,11.43
2022-12-12T16:48:13.284Z,12.00
2022-12-12T16:50:42.123Z,12.60
2022-12-12T16:53:09.323Z,11.63
2022-12-12T16:55:37.522Z,10.63
2022-12-12T16:58:04.733Z,12.10
2022-12-12T17:00:32.095Z,12.37
2022-12-12T17:02:59.301Z,11.43
2022-12-12T17:05:27.111Z,11.43
2022-12-12T17:07:55.767Z,11.70
2022-12-12T17:10:24.843Z,11.67
2022-12-12T17:12:52.254Z,11.57
2022-12-12T17:15:21.344Z,11.33
2022-12-12T17:17:48.599Z,11.50
2022-12-12T17:20:16.404Z,12.70
2022-12-12T17:22:44.073Z,11.80
2022-12-12T17:25:12.793Z,12.90
2022-12-12T17:27:40.159Z,13.03
2022-12-12T17:30:08.852Z,12.07
2022-12-12T17:32:36.834Z,12.13
2022-12-12T17:35:04.316Z,12.17
2022-12-12T17:37:31.516Z,11.43
2022-12-12T17:39:58.858Z,12.60
2022-12-12T17:42:29.687Z,12.97
2022-12-12T17:44:56.908Z,13.47
2022-12-12T17:47:24.192Z,11.60
2022-12-12T17:49:51.552Z,12.83
2022-12-12T17:52:19.094Z,12.80
2022-12-12T17:55:51.685Z,14.53
2022-12-12T17:57:35.247Z,14.40
2022-12-12T18:00:02.880Z,13.83
2022-12-12T18:02:39.566Z,13.67
2022-12-12T18:05:07.485Z,14.93
2022-12-12T18:07:34.710Z,13.93
2022-12-12T18:10:01.971Z,14.77
2022-12-12T18:12:29.256Z,12.63
2022-12-12T18:14:57.869Z,13.53
2022-12-12T18:17:25.157Z,13.07
2022-12-12T18:19:52.374Z,13.07
2022-12-12T18:22:19.675Z,13.67
2022-12-12T18:24:49.288Z,14.60
2022-12-12T18:27:16.561Z,13.47
2022-12-12T18:29:43.941Z,12.73
2022-12-12T18:32:12.536Z,15.73
2022-12-12T18:34:39.874Z,13.40
2022-12-12T18:37:07.099Z,13.83
2022-12-12T18:39:34.329Z,13.70
2022-12-12T18:42:01.685Z,14.13
2022-12-12T18:44:28.887Z,14.13
2022-12-12T18:46:56.108Z,13.40
2022-12-12T18:49:24.734Z,13.17
2022-12-12T18:51:51.980Z,5.23
2022-12-12T18:54:19.343Z,12.10
2022-12-12T18:56:47.235Z,13.67
2022-12-12T18:59:14.732Z,13.47
2022-12-12T19:01:42.237Z,13.00
2022-12-12T19:04:13.448Z,13.17
2022-12-12T19:06:43.829Z,13.10
2022-12-12T19:09:13.025Z,12.33
2022-12-12T19:11:40.252Z,12.97
2022-12-12T19:14:07.728Z,13.50
2022-12-12T19:16:35.069Z,12.33
2022-12-12T19:19:03.122Z,13.07
2022-12-12T19:21:30.379Z,14.53
2022-12-12T19:23:59.593Z,13.27
2022-12-12T19:26:28.044Z,13.80
2022-12-12T19:28:56.410Z,13.70
2022-12-12T19:31:23.729Z,13.23
2022-12-12T19:33:51.399Z,14.73
2022-12-12T19:36:20.348Z,13.47
2022-12-12T19:38:47.933Z,13.27
2022-12-12T19:41:17.614Z,13.93
2022-12-12T19:43:45.962Z,14.83
2022-12-12T19:46:14.442Z,15.13
2022-12-12T19:48:42.065Z,14.63
2022-12-12T19:51:10.342Z,14.03
2022-12-12T19:53:38.436Z,14.20
2022-12-12T19:56:15.185Z,13.70
2022-12-12T19:58:53.445Z,15.87
2022-12-12T20:01:21.708Z,15.10
2022-12-12T20:03:49.755Z,14.97
2022-12-12T20:06:17.376Z,15.37
2022-12-12T20:08:44.955Z,16.43
2022-12-12T20:11:14.330Z,14.60
2022-12-12T20:13:41.679Z,15.87
2022-12-12T20:16:15.641Z,15.10
2022-12-12T20:18:43.301Z,15.83
2022-12-12T20:21:20.460Z,17.33
2022-12-12T20:23:57.593Z,17.07
2022-12-12T20:26:26.937Z,18.17
2022-12-12T20:29:02.131Z,17.27
2022-12-12T20:31:48.417Z,16.57
2022-12-12T20:34:18.189Z,17.40
2022-12-12T20:36:45.819Z,17.43
2022-12-12T20:39:14.458Z,17.83
2022-12-12T20:41:41.691Z,17.97
2022-12-12T20:47:03.922Z,17.40
2022-12-12T20:49:32.488Z,17.57
2022-12-12T20:52:00.243Z,16.63
2022-12-12T20:54:28.460Z,18.07
2022-12-12T20:56:56.946Z,16.90
2022-12-12T20:59:42.579Z,17.80
2022-12-12T21:02:32.022Z,16.40
2022-12-12T21:05:13.740Z,16.40
2022-12-12T21:07:41.077Z,15.40
2022-12-12T21:10:08.732Z,17.77
2022-12-12T21:12:36.797Z,17.00
2022-12-12T21:15:04.185Z,15.10
2022-12-12T21:17:31.449Z,16.20
2022-12-12T21:20:01.791Z,16.43
2022-12-12T21:22:35.043Z,16.07
2022-12-12T21:25:02.387Z,15.10
2022-12-12T21:27:29.635Z,4.83
2022-12-12T21:29:56.874Z,16.60
2022-12-12T21:32:24.146Z,16.27
2022-12-12T21:35:03.885Z,16.57
2022-12-12T21:37:35.847Z,15.37
2022-12-12T21:40:08.201Z,14.93
2022-12-12T21:42:35.418Z,16.70
2022-12-12T21:48:47.915Z,17.57
2022-12-12T21:51:16.028Z,15.83
2022-12-12T21:53:43.511Z,16.97
2022-12-12T21:56:13.367Z,16.70
2022-12-12T21:58:41.564Z,16.93
2022-12-12T22:01:09.985Z,17.17
2022-12-12T22:03:37.587Z,16.63
2022-12-12T22:06:09.924Z,17.67
2022-12-12T22:08:37.294Z,16.60
2022-12-12T22:11:04.542Z,16.47
2022-12-12T22:13:39.652Z,16.90
2022-12-12T22:16:08.903Z,17.43
2022-12-12T22:18:36.175Z,16.97
2022-12-12T22:21:04.001Z,16.30
2022-12-12T22:23:31.222Z,16.57
2022-12-12T22:25:58.484Z,15.80
2022-12-12T22:28:25.754Z,17.17
2022-12-12T22:30:54.354Z,15.30
2022-12-12T22:33:21.590Z,16.90
2022-12-12T22:35:48.796Z,16.20
2022-12-12T22:38:16.119Z,15.87
2022-12-12T22:40:43.332Z,17.17
2022-12-12T22:43:10.543Z,16.43
2022-12-12T22:45:37.756Z,15.63
2022-12-12T22:48:06.522Z,15.37
2022-12-12T22:50:34.353Z,14.20
2022-12-12T22:53:01.609Z,16.17
2022-12-12T22:55:28.824Z,15.83
2022-12-12T22:57:56.138Z,14.43
2022-12-12T23:00:23.561Z,15.83
2022-12-12T23:02:50.819Z,15.90
2022-12-12T23:05:19.853Z,16.00
2022-12-12T23:07:47.487Z,13.83
2022-12-12T23:10:15.365Z,16.67
2022-12-12T23:12:44.184Z,16.07
2022-12-12T23:15:11.989Z,17.83
2022-12-12T23:17:39.541Z,16.37
2022-12-12T23:20:07.235Z,16.13
2022-12-12T23:22:35.838Z,15.23
2022-12-12T23:25:03.503Z,14.93
2022-12-12T23:27:30.716Z,14.63
2022-12-12T23:29:58.019Z,15.00
2022-12-12T23:32:25.321Z,16.90
2022-12-12T23:34:52.592Z,16.13
2022-12-12T23:37:19.825Z,17.63
2022-12-12T23:39:50.611Z,16.17
2022-12-12T23:42:17.817Z,15.57
2022-12-12T23:44:45.024Z,16.23
2022-12-12T23:47:12.314Z,14.67
2022-12-12T23:49:39.678Z,18.27
2022-12-12T23:52:06.922Z,16.57
2022-12-12T23:54:34.241Z,15.43
2022-12-12T23:57:03.087Z,16.30
2022-12-12T23:59:30.332Z,15.63
